EFKE/KEM METAR and TAF weather

Enter ICAO airport designator
Station Type Date Time Source
EFKE METAR 2020/04/09 20:50 UTC NOAA

EFKE 092050Z AUTO VRB01KT CAVOK M05/M07 Q1012


Station Type Date Time Source
EFKE Decoded METAR 2020/04/09 20:50 UTC NOAA

Kemi, Finland (EFKE) 65-47N 024-35E
Apr 09, 2020 - 04:50 PM EDT / 2020.04.09 2050 UTC
Wind: Variable at 1 MPH (1 KT):0
Visibility: greater than 7 mile(s):0
Temperature: 23 F (-5 C)
Dew Point: 19 F (-7 C)
Relative Humidity: 85%
Pressure (altimeter): 29.88 in. Hg (1012 hPa)
ob: EFKE 092050Z AUTO VRB01KT CAVOK M05/M07 Q1012
cycle: 21

Station Type Date Time Source
EFKE TAF 2015/01/12 15:42 UTC NOAA

TAF EFKE 121433Z 1215/1312 03006KT CAVOK
BECMG 1300/1302 9999 BKN015
FM130400 07008KT 9999 SCT014 BKN018
TEMPO 1304/1312 7000 -SN

Example: see airport list